createdAt,value
2022-09-06T00:00:14.337Z,16.10
2022-09-06T00:02:42.243Z,16.10
2022-09-06T00:05:10.871Z,16.10
2022-09-06T00:07:37.879Z,16.10
2022-09-06T00:10:05.827Z,16.10
2022-09-06T00:12:33.136Z,16.10
2022-09-06T00:15:00.110Z,16.10
2022-09-06T00:17:27.197Z,16.10
2022-09-06T00:19:54.143Z,16.10
2022-09-06T00:22:21.132Z,16.10
2022-09-06T00:24:48.108Z,16.10
2022-09-06T00:27:15.199Z,16.10
2022-09-06T00:29:42.321Z,16.00
2022-09-06T00:32:09.342Z,16.00
2022-09-06T00:34:36.298Z,16.00
2022-09-06T00:37:03.365Z,15.90
2022-09-06T00:39:30.353Z,16.00
2022-09-06T00:41:57.560Z,16.00
2022-09-06T00:44:24.483Z,16.00
2022-09-06T00:46:54.634Z,16.00
2022-09-06T00:49:24.715Z,16.00
2022-09-06T00:52:01.899Z,16.00
2022-09-06T00:54:29.021Z,15.90
2022-09-06T00:56:57.786Z,16.00
2022-09-06T00:59:27.216Z,16.00
2022-09-06T01:01:54.356Z,16.00
2022-09-06T01:04:21.821Z,16.00
2022-09-06T01:06:57.586Z,16.00
2022-09-06T01:09:43.111Z,16.00
2022-09-06T01:12:19.843Z,16.00
2022-09-06T01:15:03.160Z,16.00
2022-09-06T01:17:42.329Z,16.00
2022-09-06T01:20:41.879Z,16.00
2022-09-06T01:23:33.021Z,16.00
2022-09-06T01:26:24.853Z,16.00
2022-09-06T01:28:54.095Z,16.00
2022-09-06T01:31:48.257Z,16.00
2022-09-06T01:34:37.984Z,16.00
2022-09-06T01:37:14.674Z,15.90
2022-09-06T01:39:42.439Z,16.00
2022-09-06T01:42:15.936Z,16.00
2022-09-06T01:45:12.102Z,15.90
2022-09-06T01:48:10.059Z,15.90
2022-09-06T01:51:10.544Z,15.90
2022-09-06T01:54:01.519Z,15.90
2022-09-06T01:56:47.705Z,15.90
2022-09-06T01:59:22.366Z,15.90
2022-09-06T02:02:16.686Z,15.90
2022-09-06T02:05:01.528Z,15.90
2022-09-06T02:07:31.350Z,15.80
2022-09-06T02:10:09.901Z,15.80
2022-09-06T02:12:40.844Z,15.80
2022-09-06T02:15:33.172Z,15.90
2022-09-06T02:18:09.019Z,15.80
2022-09-06T02:20:41.311Z,15.80
2022-09-06T02:23:10.004Z,15.80
2022-09-06T02:26:12.716Z,15.80
2022-09-06T02:28:40.025Z,15.80
2022-09-06T02:31:16.359Z,15.70
2022-09-06T02:33:46.550Z,15.80
2022-09-06T02:36:15.872Z,15.70
2022-09-06T02:38:44.982Z,15.80
2022-09-06T02:41:15.539Z,15.80
2022-09-06T02:43:43.614Z,15.70
2022-09-06T02:46:10.999Z,15.80
2022-09-06T02:48:37.967Z,15.80
2022-09-06T02:51:09.492Z,15.70
2022-09-06T02:53:36.678Z,15.70
2022-09-06T02:56:04.612Z,15.70
2022-09-06T02:58:31.723Z,15.70
2022-09-06T03:00:59.004Z,15.80
2022-09-06T03:03:27.451Z,15.80
2022-09-06T03:05:55.286Z,15.70
2022-09-06T03:08:25.819Z,15.70
2022-09-06T03:10:54.956Z,15.70
2022-09-06T03:13:22.403Z,15.70
2022-09-06T03:15:57.662Z,15.70
2022-09-06T03:18:25.925Z,15.70
2022-09-06T03:20:54.991Z,15.80
2022-09-06T03:23:24.439Z,15.80
2022-09-06T03:25:51.895Z,15.70
2022-09-06T03:28:19.954Z,15.80
2022-09-06T03:30:48.468Z,15.80
2022-09-06T03:33:16.298Z,15.80
2022-09-06T03:35:59.599Z,15.80
2022-09-06T03:38:28.320Z,15.80
2022-09-06T03:40:55.627Z,15.80
2022-09-06T03:43:24.706Z,15.80
2022-09-06T03:45:54.236Z,15.80
2022-09-06T03:48:23.015Z,15.80
2022-09-06T03:50:53.098Z,15.80
2022-09-06T03:53:21.078Z,15.80
2022-09-06T03:55:50.300Z,15.80
2022-09-06T03:58:18.969Z,15.90
2022-09-06T04:00:46.265Z,15.90
2022-09-06T04:03:13.400Z,15.90
2022-09-06T04:05:40.683Z,15.90
2022-09-06T04:08:07.594Z,15.90
2022-09-06T04:10:34.510Z,15.90
2022-09-06T04:13:01.442Z,15.80
2022-09-06T04:15:28.612Z,15.90
2022-09-06T04:17:55.659Z,15.90
2022-09-06T04:20:22.603Z,15.80
2022-09-06T04:22:49.533Z,15.80
2022-09-06T04:25:16.527Z,15.90
2022-09-06T04:27:43.469Z,15.80
2022-09-06T04:30:10.661Z,15.80
2022-09-06T04:32:37.662Z,15.80
2022-09-06T04:35:05.055Z,15.80
2022-09-06T04:37:32.536Z,15.80
2022-09-06T04:39:59.682Z,15.80
2022-09-06T04:42:26.786Z,15.80
2022-09-06T04:44:53.766Z,15.80
2022-09-06T04:47:20.951Z,15.80
2022-09-06T04:49:50.728Z,15.80
2022-09-06T04:52:18.008Z,15.80
2022-09-06T04:54:45.055Z,15.80
2022-09-06T04:57:12.040Z,15.80
2022-09-06T04:59:39.019Z,15.80
2022-09-06T05:02:06.020Z,15.80
2022-09-06T05:04:33.032Z,15.80
2022-09-06T05:07:07.417Z,15.80
2022-09-06T05:09:34.909Z,15.80
2022-09-06T05:12:02.026Z,15.80
2022-09-06T05:14:29.736Z,15.70
2022-09-06T05:16:56.904Z,15.70
2022-09-06T05:19:23.867Z,15.70
2022-09-06T05:21:53.918Z,15.70
2022-09-06T05:24:20.923Z,15.70
2022-09-06T05:26:47.963Z,15.70
2022-09-06T05:29:14.982Z,15.60
2022-09-06T05:31:41.989Z,15.70
2022-09-06T05:34:09.030Z,15.70
2022-09-06T05:36:36.086Z,15.60
2022-09-06T05:39:03.146Z,15.60
2022-09-06T05:41:30.092Z,15.60
2022-09-06T05:43:57.100Z,15.50
2022-09-06T05:46:24.138Z,15.60
2022-09-06T05:48:55.540Z,15.60
2022-09-06T05:51:22.524Z,15.60
2022-09-06T05:53:49.502Z,15.60
2022-09-06T05:56:16.962Z,15.60
2022-09-06T05:58:43.934Z,15.60
2022-09-06T06:01:28.103Z,15.60
2022-09-06T06:04:00.594Z,15.70
2022-09-06T06:06:30.070Z,15.70
2022-09-06T06:08:57.157Z,15.80
2022-09-06T06:11:25.990Z,15.80
2022-09-06T06:13:53.289Z,15.90
2022-09-06T06:16:22.635Z,15.90
2022-09-06T06:18:52.324Z,15.90
2022-09-06T06:21:25.152Z,15.90
2022-09-06T06:23:58.216Z,15.90
2022-09-06T06:26:26.713Z,15.90
2022-09-06T06:28:54.030Z,15.90
2022-09-06T06:31:22.672Z,15.90
2022-09-06T06:33:50.346Z,15.90
2022-09-06T06:36:17.405Z,15.90
2022-09-06T06:38:46.034Z,15.90
2022-09-06T06:41:15.553Z,15.90
2022-09-06T06:43:42.819Z,15.90
2022-09-06T06:46:15.411Z,15.90
2022-09-06T06:48:43.922Z,15.90
2022-09-06T06:51:16.872Z,16.00
2022-09-06T06:53:47.506Z,16.00
2022-09-06T06:56:18.693Z,16.10
2022-09-06T06:58:47.935Z,16.00
2022-09-06T07:01:20.477Z,16.10
2022-09-06T07:03:47.887Z,16.10
2022-09-06T07:06:15.500Z,16.10
2022-09-06T07:08:43.455Z,16.10
2022-09-06T07:11:13.526Z,16.10
2022-09-06T07:13:40.786Z,16.10
2022-09-06T07:16:12.458Z,16.10
2022-09-06T07:18:42.397Z,16.10
2022-09-06T07:24:09.014Z,16.20
2022-09-06T07:26:39.156Z,16.20
2022-09-06T07:29:07.370Z,16.20
2022-09-06T07:34:25.222Z,16.30
2022-09-06T07:36:56.380Z,16.40
2022-09-06T07:39:23.610Z,16.30
2022-09-06T07:41:50.621Z,16.40
2022-09-06T07:44:17.691Z,16.40
2022-09-06T07:46:44.825Z,16.40
2022-09-06T07:49:12.166Z,16.40
2022-09-06T07:51:39.252Z,16.40
2022-09-06T07:54:28.657Z,16.40
2022-09-06T07:56:54.091Z,16.40
2022-09-06T07:59:21.051Z,16.50
2022-09-06T08:01:48.417Z,16.50
2022-09-06T08:04:15.553Z,16.50
2022-09-06T08:09:35.307Z,16.60
2022-09-06T08:12:07.541Z,16.70
2022-09-06T08:14:35.168Z,16.60
2022-09-06T08:17:03.014Z,16.60
2022-09-06T08:19:29.972Z,16.60
2022-09-06T08:21:57.164Z,16.60
2022-09-06T08:24:24.500Z,16.60
2022-09-06T08:26:51.550Z,16.50
2022-09-06T08:29:20.076Z,16.50
2022-09-06T08:31:47.567Z,16.50
2022-09-06T08:34:15.519Z,16.50
2022-09-06T08:36:43.395Z,16.50
2022-09-06T08:39:11.210Z,16.50
2022-09-06T08:42:03.106Z,16.60
2022-09-06T08:47:21.916Z,16.60
2022-09-06T08:49:52.493Z,16.60
2022-09-06T08:52:49.709Z,16.60
2022-09-06T08:55:40.914Z,16.60
2022-09-06T08:58:33.758Z,16.60
2022-09-06T09:01:11.678Z,16.70
2022-09-06T09:03:42.041Z,16.80
2022-09-06T09:06:10.358Z,16.90
2022-09-06T09:09:01.829Z,16.90
2022-09-06T09:11:30.363Z,17.00
2022-09-06T09:14:22.441Z,16.90
2022-09-06T09:16:55.131Z,16.90
2022-09-06T09:19:22.479Z,16.70
2022-09-06T09:21:49.476Z,16.70
2022-09-06T09:24:16.428Z,16.60
2022-09-06T09:27:11.346Z,16.60
2022-09-06T09:32:44.748Z,16.50
2022-09-06T09:35:37.271Z,16.40
2022-09-06T09:38:11.809Z,16.50
2022-09-06T09:40:56.535Z,16.50
2022-09-06T09:43:24.618Z,16.50
2022-09-06T09:46:22.575Z,16.50
2022-09-06T09:49:11.036Z,16.50
2022-09-06T09:51:43.538Z,16.50
2022-09-06T09:54:13.721Z,16.50
2022-09-06T09:56:45.885Z,16.60
2022-09-06T10:00:08.525Z,16.50
2022-09-06T10:02:40.160Z,16.60
2022-09-06T10:05:10.118Z,16.50
2022-09-06T10:07:42.764Z,16.50
2022-09-06T10:10:32.364Z,16.50
2022-09-06T10:13:22.656Z,16.40
2022-09-06T10:15:52.016Z,16.30
2022-09-06T10:18:30.864Z,16.20
2022-09-06T10:21:05.551Z,16.30
2022-09-06T10:26:55.432Z,16.20
2022-09-06T10:29:53.165Z,16.20
2022-09-06T10:32:37.754Z,16.20
2022-09-06T10:35:16.907Z,16.20
2022-09-06T10:37:46.592Z,16.20
2022-09-06T10:40:24.947Z,16.30
2022-09-06T10:42:54.362Z,16.20
2022-09-06T10:45:24.612Z,16.20
2022-09-06T10:48:14.919Z,16.20
2022-09-06T10:50:54.251Z,16.20
2022-09-06T10:53:33.230Z,16.30
2022-09-06T10:56:24.618Z,16.30
2022-09-06T11:02:27.868Z,16.30
2022-09-06T11:10:49.994Z,16.40
2022-09-06T11:13:23.223Z,16.40
2022-09-06T11:16:14.734Z,16.40
2022-09-06T11:18:59.128Z,16.40
2022-09-06T11:21:43.928Z,16.40
2022-09-06T11:24:27.561Z,16.30
2022-09-06T11:27:12.584Z,16.30
2022-09-06T11:29:46.367Z,16.30
2022-09-06T11:32:40.010Z,16.30
2022-09-06T11:35:11.108Z,16.30
2022-09-06T11:37:43.941Z,16.30
2022-09-06T11:40:28.189Z,16.30
2022-09-06T11:42:55.614Z,16.30
2022-09-06T11:45:41.955Z,16.40
2022-09-06T11:48:24.336Z,16.40
2022-09-06T11:50:54.339Z,16.50
2022-09-06T11:53:23.965Z,16.50
2022-09-06T11:56:09.847Z,16.40
2022-09-06T11:58:45.919Z,16.50
2022-09-06T12:01:12.854Z,16.50
2022-09-06T12:04:05.923Z,16.50
2022-09-06T12:06:40.885Z,16.50
2022-09-06T12:09:31.019Z,16.40
2022-09-06T12:11:59.291Z,16.40
2022-09-06T12:14:34.299Z,16.40
2022-09-06T12:17:01.458Z,16.40
2022-09-06T12:19:46.367Z,16.30
2022-09-06T12:22:32.824Z,16.40
2022-09-06T12:25:22.742Z,16.40
2022-09-06T12:28:01.779Z,16.50
2022-09-06T12:30:36.192Z,16.50
2022-09-06T12:33:11.268Z,16.50
2022-09-06T12:38:25.412Z,16.60
2022-09-06T12:40:58.421Z,16.60
2022-09-06T12:43:26.058Z,16.60
2022-09-06T12:45:53.171Z,16.60
2022-09-06T12:48:33.650Z,16.60
2022-09-06T12:51:19.548Z,16.60
2022-09-06T12:54:19.185Z,16.60
2022-09-06T12:56:46.112Z,16.60
2022-09-06T12:59:19.525Z,16.60
2022-09-06T13:02:05.321Z,16.60
2022-09-06T13:04:41.189Z,16.60
2022-09-06T13:07:14.745Z,16.50
2022-09-06T13:09:49.263Z,16.50
2022-09-06T13:12:39.396Z,16.50
2022-09-06T13:15:17.820Z,16.50
2022-09-06T13:17:45.300Z,16.50
2022-09-06T13:20:15.696Z,16.40
2022-09-06T13:22:47.883Z,16.40
2022-09-06T13:25:22.763Z,16.40
2022-09-06T13:27:51.490Z,16.40
2022-09-06T13:30:34.823Z,16.40
2022-09-06T13:33:03.668Z,16.40
2022-09-06T13:35:34.574Z,16.40
2022-09-06T13:38:22.241Z,16.40
2022-09-06T13:41:12.514Z,16.40
2022-09-06T13:43:48.619Z,16.40
2022-09-06T13:46:16.227Z,16.40
2022-09-06T13:48:44.628Z,16.50
2022-09-06T13:51:12.047Z,16.40
2022-09-06T13:53:39.029Z,16.50
2022-09-06T13:56:08.721Z,16.40
2022-09-06T13:58:36.510Z,16.40
2022-09-06T14:01:05.269Z,16.40
2022-09-06T14:03:32.990Z,16.40
2022-09-06T14:06:00.527Z,16.40
2022-09-06T14:08:38.761Z,16.40
2022-09-06T14:11:10.762Z,16.30
2022-09-06T14:13:37.813Z,16.30
2022-09-06T14:16:05.653Z,16.30
2022-09-06T14:18:32.607Z,16.30
2022-09-06T14:20:59.557Z,16.20
2022-09-06T14:23:26.946Z,16.20
2022-09-06T14:26:01.911Z,16.20
2022-09-06T14:28:32.212Z,16.30
2022-09-06T14:30:59.228Z,16.20
2022-09-06T14:33:26.296Z,16.30
2022-09-06T14:35:53.276Z,16.30
2022-09-06T14:38:20.262Z,16.30
2022-09-06T14:40:47.656Z,16.30
2022-09-06T14:43:16.106Z,16.30
2022-09-06T14:45:43.083Z,16.40
2022-09-06T14:48:10.290Z,16.40
2022-09-06T14:50:37.554Z,16.50
2022-09-06T14:53:15.027Z,16.40
2022-09-06T14:55:51.198Z,16.40
2022-09-06T14:58:18.226Z,16.40
2022-09-06T15:00:46.693Z,16.40
2022-09-06T15:03:13.680Z,16.40
2022-09-06T15:05:40.670Z,16.40
2022-09-06T15:08:07.676Z,16.40
2022-09-06T15:10:34.668Z,16.40
2022-09-06T15:13:01.741Z,16.40
2022-09-06T15:15:28.837Z,16.50
2022-09-06T15:17:55.895Z,16.50
2022-09-06T15:20:22.813Z,16.50
2022-09-06T15:22:56.344Z,16.50
2022-09-06T15:25:54.458Z,16.50
2022-09-06T15:28:21.586Z,16.50
2022-09-06T15:30:49.184Z,16.40
2022-09-06T15:33:16.399Z,16.50
2022-09-06T15:35:44.189Z,16.50
2022-09-06T15:38:12.221Z,16.50
2022-09-06T15:40:39.313Z,16.50
2022-09-06T15:43:07.621Z,16.50
2022-09-06T15:45:47.438Z,16.50
2022-09-06T15:48:17.870Z,16.60
2022-09-06T15:50:51.726Z,16.60
2022-09-06T15:53:19.832Z,16.60
2022-09-06T15:55:56.283Z,16.70
2022-09-06T15:58:25.203Z,16.80
2022-09-06T16:01:11.757Z,16.80
2022-09-06T16:03:42.057Z,16.90
2022-09-06T16:06:27.897Z,16.90
2022-09-06T16:09:04.893Z,16.90
2022-09-06T16:11:36.949Z,16.90
2022-09-06T16:14:06.254Z,16.90
2022-09-06T16:16:35.016Z,16.90
2022-09-06T16:19:02.601Z,17.00
2022-09-06T16:21:32.354Z,16.90
2022-09-06T16:24:08.239Z,16.90
2022-09-06T16:26:38.291Z,16.80
2022-09-06T16:29:07.260Z,16.90
2022-09-06T16:31:39.335Z,16.90
2022-09-06T16:34:07.946Z,16.90
2022-09-06T16:36:35.131Z,16.80
2022-09-06T16:39:02.509Z,16.80
2022-09-06T16:41:40.898Z,16.80
2022-09-06T16:44:09.825Z,16.70
2022-09-06T16:46:37.080Z,16.70
2022-09-06T16:49:04.700Z,16.70
2022-09-06T16:51:32.084Z,16.70
2022-09-06T16:54:00.227Z,16.60
2022-09-06T16:56:33.294Z,16.60
2022-09-06T16:59:03.157Z,16.60
2022-09-06T17:01:31.425Z,16.50
2022-09-06T17:04:02.296Z,16.40
2022-09-06T17:06:30.640Z,16.40
2022-09-06T17:08:58.720Z,16.30
2022-09-06T17:11:27.037Z,16.20
2022-09-06T17:13:55.502Z,16.20
2022-09-06T17:16:41.431Z,16.20
2022-09-06T17:19:09.563Z,16.10
2022-09-06T17:21:37.480Z,16.10
2022-09-06T17:24:05.661Z,16.10
2022-09-06T17:26:35.118Z,16.10
2022-09-06T17:29:02.124Z,16.10
2022-09-06T17:31:29.458Z,16.10
2022-09-06T17:33:56.501Z,16.10
2022-09-06T17:36:30.569Z,16.10
2022-09-06T17:39:01.945Z,16.10
2022-09-06T17:41:33.608Z,16.20
2022-09-06T17:44:00.601Z,16.10
2022-09-06T17:46:29.087Z,16.20
2022-09-06T17:48:56.808Z,16.10
2022-09-06T17:51:24.723Z,16.10
2022-09-06T17:53:53.056Z,16.10
2022-09-06T17:56:20.967Z,16.10
2022-09-06T17:58:56.411Z,16.10
2022-09-06T18:01:25.106Z,16.10
2022-09-06T18:03:52.948Z,16.10
2022-09-06T18:06:24.803Z,16.10
2022-09-06T18:08:55.679Z,16.10
2022-09-06T18:11:28.275Z,16.10
2022-09-06T18:14:03.012Z,16.10
2022-09-06T18:16:31.354Z,16.10
2022-09-06T18:19:00.667Z,16.10
2022-09-06T18:21:30.991Z,16.10
2022-09-06T18:23:58.735Z,16.10
2022-09-06T18:26:26.451Z,16.00
2022-09-06T18:28:53.803Z,16.10
2022-09-06T18:31:23.235Z,16.00
2022-09-06T18:33:51.034Z,16.00
2022-09-06T18:36:19.631Z,16.00
2022-09-06T18:38:46.990Z,16.00
2022-09-06T18:41:34.465Z,16.00
2022-09-06T18:44:05.705Z,16.00
2022-09-06T18:46:34.722Z,15.90
2022-09-06T18:49:02.181Z,15.90
2022-09-06T18:51:29.365Z,15.90
2022-09-06T18:53:57.857Z,15.90
2022-09-06T18:56:25.344Z,15.90
2022-09-06T18:59:00.139Z,15.90
2022-09-06T19:01:29.405Z,15.90
2022-09-06T19:04:00.126Z,15.90
2022-09-06T19:06:29.381Z,15.90
2022-09-06T19:09:05.494Z,15.90
2022-09-06T19:11:33.174Z,15.90
2022-09-06T19:14:00.441Z,15.90
2022-09-06T19:16:29.084Z,15.90
2022-09-06T19:18:57.033Z,15.90
2022-09-06T19:21:25.570Z,15.90
2022-09-06T19:24:00.692Z,15.90
2022-09-06T19:26:31.335Z,15.90
2022-09-06T19:29:00.670Z,15.90
2022-09-06T19:31:30.299Z,15.90
2022-09-06T19:33:58.925Z,15.90
2022-09-06T19:36:27.842Z,15.90
2022-09-06T19:39:05.030Z,15.90
2022-09-06T19:41:35.834Z,15.90
2022-09-06T19:44:14.855Z,15.80
2022-09-06T19:46:45.948Z,15.80
2022-09-06T19:49:17.579Z,15.90
2022-09-06T19:51:46.686Z,15.90
2022-09-06T19:54:17.129Z,15.90
2022-09-06T19:56:45.205Z,15.90
2022-09-06T19:59:13.724Z,15.90
2022-09-06T20:01:42.610Z,15.90
2022-09-06T20:04:11.270Z,15.90
2022-09-06T20:06:39.028Z,15.90
2022-09-06T20:09:09.078Z,15.90
2022-09-06T20:11:37.928Z,15.90
2022-09-06T20:14:06.905Z,15.90
2022-09-06T20:16:37.082Z,15.90
2022-09-06T20:19:07.905Z,15.90
2022-09-06T20:21:35.293Z,15.80
2022-09-06T20:24:02.540Z,15.90
2022-09-06T20:26:30.572Z,15.90
2022-09-06T20:28:59.533Z,15.90
2022-09-06T20:31:29.791Z,15.90
2022-09-06T20:33:59.917Z,15.90
2022-09-06T20:36:27.698Z,16.00
2022-09-06T20:38:54.675Z,16.00
2022-09-06T20:41:23.815Z,15.90
2022-09-06T20:43:55.624Z,15.90
2022-09-06T20:46:24.941Z,16.00
2022-09-06T20:48:52.638Z,15.90
2022-09-06T20:51:21.880Z,16.00
2022-09-06T20:53:53.397Z,16.00
2022-09-06T20:56:23.481Z,16.00
2022-09-06T20:58:57.696Z,16.00
2022-09-06T21:01:32.091Z,16.00
2022-09-06T21:04:00.757Z,16.00
2022-09-06T21:06:30.440Z,16.00
2022-09-06T21:09:00.512Z,15.90
2022-09-06T21:11:28.004Z,15.90
2022-09-06T21:14:01.252Z,15.90
2022-09-06T21:16:29.797Z,15.90
2022-09-06T21:19:12.864Z,16.00
2022-09-06T21:21:40.770Z,15.90
2022-09-06T21:24:12.962Z,15.90
2022-09-06T21:26:44.886Z,15.90
